createdAt,value
2022-11-07T00:01:36.091Z,14.49
2022-11-07T00:04:19.961Z,14.61
2022-11-07T00:07:04.465Z,14.25
2022-11-07T00:09:48.250Z,14.22
2022-11-07T00:12:35.311Z,14.52
2022-11-07T00:15:20.477Z,14.68
2022-11-07T00:18:04.408Z,14.64
2022-11-07T00:20:48.268Z,14.64
2022-11-07T00:23:32.125Z,14.14
2022-11-07T00:26:16.758Z,14.40
2022-11-07T00:29:00.720Z,14.60
2022-11-07T00:31:46.055Z,14.45
2022-11-07T00:34:29.708Z,13.95
2022-11-07T00:37:13.610Z,14.35
2022-11-07T00:39:57.256Z,14.53
2022-11-07T00:42:41.073Z,14.11
2022-11-07T00:45:24.854Z,14.20
2022-11-07T00:48:10.202Z,14.23
2022-11-07T00:50:54.096Z,14.23
2022-11-07T00:53:38.294Z,14.13
2022-11-07T00:56:25.080Z,14.35
2022-11-07T00:59:08.811Z,14.05
2022-11-07T01:01:52.639Z,14.49
2022-11-07T01:04:56.137Z,14.43
2022-11-07T01:07:40.622Z,14.40
2022-11-07T01:10:24.353Z,14.06
2022-11-07T01:13:08.156Z,14.11
2022-11-07T01:15:52.438Z,13.68
2022-11-07T01:18:36.176Z,14.10
2022-11-07T01:21:21.988Z,13.92
2022-11-07T01:24:06.597Z,13.97
2022-11-07T01:26:51.976Z,14.33
2022-11-07T01:29:36.037Z,14.21
2022-11-07T01:32:19.959Z,13.94
2022-11-07T01:35:04.106Z,14.27
2022-11-07T01:37:49.546Z,14.16
2022-11-07T01:40:54.378Z,14.04
2022-11-07T01:43:44.433Z,13.88
2022-11-07T01:46:31.539Z,14.24
2022-11-07T01:49:20.730Z,14.32
2022-11-07T01:52:08.414Z,13.89
2022-11-07T01:54:58.970Z,14.21
2022-11-07T01:57:46.475Z,14.16
2022-11-07T02:00:31.231Z,13.70
2022-11-07T02:03:18.686Z,13.73
2022-11-07T02:06:06.811Z,13.79
2022-11-07T02:08:51.992Z,14.07
2022-11-07T02:11:37.820Z,13.86
2022-11-07T02:14:21.590Z,14.10
2022-11-07T02:17:05.432Z,14.02
2022-11-07T02:19:51.472Z,13.96
2022-11-07T02:22:42.573Z,13.89
2022-11-07T02:25:28.164Z,13.82
2022-11-07T02:28:15.165Z,14.10
2022-11-07T02:30:58.945Z,13.78
2022-11-07T02:33:42.672Z,13.84
2022-11-07T02:36:27.213Z,14.00
2022-11-07T02:39:10.957Z,14.05
2022-11-07T02:41:58.824Z,14.36
2022-11-07T02:44:42.687Z,14.28
2022-11-07T02:47:26.333Z,14.06
2022-11-07T02:50:10.910Z,14.07
2022-11-07T02:52:54.734Z,14.36
2022-11-07T02:55:38.493Z,14.46
2022-11-07T02:58:23.688Z,14.26
2022-11-07T03:01:12.538Z,14.32
2022-11-07T03:03:56.455Z,14.29
2022-11-07T03:06:40.237Z,14.25
2022-11-07T03:09:24.101Z,13.96
2022-11-07T03:12:08.121Z,13.88
2022-11-07T03:14:53.300Z,14.06
2022-11-07T03:17:37.281Z,14.09
2022-11-07T03:20:21.191Z,14.16
2022-11-07T03:23:05.088Z,14.05
2022-11-07T03:25:48.948Z,13.77
2022-11-07T03:28:33.167Z,13.64
2022-11-07T03:31:18.445Z,13.85
2022-11-07T03:34:02.434Z,13.82
2022-11-07T03:36:46.505Z,13.67
2022-11-07T03:39:30.726Z,13.51
2022-11-07T03:42:14.650Z,13.84
2022-11-07T03:44:58.564Z,13.83
2022-11-07T03:47:45.643Z,13.74
2022-11-07T03:50:29.558Z,13.79
2022-11-07T03:53:13.904Z,13.90
2022-11-07T03:55:58.579Z,13.56
2022-11-07T03:58:42.680Z,13.93
2022-11-07T04:01:26.852Z,13.83
2022-11-07T04:04:13.319Z,14.01
2022-11-07T04:06:57.358Z,13.80
2022-11-07T04:09:41.401Z,13.99
2022-11-07T04:12:42.880Z,14.23
2022-11-07T04:15:44.499Z,14.31
2022-11-07T04:18:28.370Z,14.75
2022-11-07T04:21:13.510Z,14.88
2022-11-07T04:23:57.201Z,14.96
2022-11-07T04:26:58.040Z,15.00
2022-11-07T04:29:41.763Z,15.00
2022-11-07T04:32:25.750Z,14.62
2022-11-07T04:35:09.833Z,14.89
2022-11-07T04:37:55.195Z,14.91
2022-11-07T04:40:38.957Z,14.60
2022-11-07T04:43:22.965Z,14.69
2022-11-07T04:46:07.374Z,14.68
2022-11-07T04:48:51.538Z,14.82
2022-11-07T04:51:35.464Z,14.57
2022-11-07T04:54:20.567Z,14.27
2022-11-07T04:57:04.594Z,14.01
2022-11-07T04:59:48.376Z,14.24
2022-11-07T05:02:32.187Z,14.13
2022-11-07T05:05:16.485Z,14.02
2022-11-07T05:08:00.235Z,14.04
2022-11-07T05:10:45.427Z,13.82
2022-11-07T05:13:29.177Z,13.36
2022-11-07T05:16:17.137Z,12.64
2022-11-07T05:19:00.938Z,13.78
2022-11-07T05:21:44.778Z,13.66
2022-11-07T05:24:28.548Z,13.65
2022-11-07T05:27:19.978Z,13.57
2022-11-07T05:30:03.769Z,13.34
2022-11-07T05:32:47.518Z,13.26
2022-11-07T05:35:31.277Z,13.19
2022-11-07T05:38:15.337Z,13.22
2022-11-07T05:41:03.333Z,13.59
2022-11-07T05:43:49.110Z,13.29
2022-11-07T05:46:32.939Z,13.40
2022-11-07T05:49:16.790Z,13.33
2022-11-07T05:52:00.546Z,13.66
2022-11-07T05:54:44.254Z,13.77
2022-11-07T05:57:30.594Z,13.65
2022-11-07T06:00:16.902Z,13.80
2022-11-07T06:03:01.443Z,13.79
2022-11-07T06:05:45.290Z,13.49
2022-11-07T06:08:29.156Z,13.21
2022-11-07T06:11:12.953Z,13.49
2022-11-07T06:13:56.700Z,13.61
2022-11-07T06:16:41.851Z,13.70
2022-11-07T06:19:25.661Z,13.56
2022-11-07T06:22:09.621Z,13.52
2022-11-07T06:24:53.682Z,13.91
2022-11-07T06:27:37.434Z,13.71
2022-11-07T06:30:21.294Z,13.45
2022-11-07T06:33:08.706Z,13.40
2022-11-07T06:35:52.402Z,13.45
2022-11-07T06:38:36.254Z,13.25
2022-11-07T06:41:20.317Z,13.32
2022-11-07T06:44:04.051Z,13.17
2022-11-07T06:46:48.137Z,13.29
2022-11-07T06:49:33.235Z,13.35
2022-11-07T06:52:17.593Z,13.52
2022-11-07T06:55:01.254Z,13.34
2022-11-07T06:57:47.294Z,12.77
2022-11-07T07:00:33.141Z,13.04
2022-11-07T07:03:17.426Z,13.18
2022-11-07T07:06:04.145Z,13.00
2022-11-07T07:08:48.230Z,13.00
2022-11-07T07:11:32.188Z,13.17
2022-11-07T07:14:16.231Z,13.12
2022-11-07T07:17:00.297Z,12.98
2022-11-07T07:19:44.323Z,13.71
2022-11-07T07:22:29.920Z,13.79
2022-11-07T07:25:14.018Z,14.31
2022-11-07T07:27:58.038Z,14.34
2022-11-07T07:30:44.763Z,14.38
2022-11-07T07:33:32.981Z,14.44
2022-11-07T07:36:20.705Z,14.23
2022-11-07T07:39:06.634Z,14.06
2022-11-07T07:41:50.950Z,13.95
2022-11-07T07:44:38.179Z,14.11
2022-11-07T07:47:22.246Z,14.56
2022-11-07T07:50:06.724Z,14.68
2022-11-07T07:52:50.853Z,14.80
2022-11-07T07:55:36.330Z,14.30
2022-11-07T07:58:20.210Z,14.70
2022-11-07T08:01:10.459Z,14.92
2022-11-07T08:04:02.796Z,14.86
2022-11-07T08:06:46.811Z,14.90
2022-11-07T08:09:36.288Z,15.26
2022-11-07T08:12:21.404Z,15.17
2022-11-07T08:15:05.590Z,15.45
2022-11-07T08:17:49.893Z,15.53
2022-11-07T08:20:33.713Z,15.30
2022-11-07T08:23:18.000Z,16.03
2022-11-07T08:26:04.629Z,15.60
2022-11-07T08:28:49.936Z,16.14
2022-11-07T08:31:34.170Z,16.68
2022-11-07T08:34:18.665Z,16.21
2022-11-07T08:37:02.490Z,15.98
2022-11-07T08:39:46.162Z,15.74
2022-11-07T08:42:30.080Z,15.56
2022-11-07T08:45:15.574Z,15.29
2022-11-07T08:48:00.113Z,15.54
2022-11-07T08:50:44.391Z,15.23
2022-11-07T08:53:28.711Z,15.54
2022-11-07T08:56:12.802Z,15.58
2022-11-07T08:58:56.741Z,15.75
2022-11-07T09:02:15.192Z,15.92
2022-11-07T09:04:46.295Z,15.62
2022-11-07T09:07:30.470Z,15.82
2022-11-07T09:10:14.676Z,15.41
2022-11-07T09:12:58.696Z,15.90
2022-11-07T09:15:47.723Z,15.84
2022-11-07T09:18:36.087Z,15.17
2022-11-07T09:21:22.613Z,15.24
2022-11-07T09:24:08.223Z,14.68
2022-11-07T09:26:52.137Z,14.96
2022-11-07T09:29:36.237Z,15.66
2022-11-07T09:32:43.479Z,15.34
2022-11-07T09:35:25.163Z,15.25
2022-11-07T09:38:08.954Z,15.07
2022-11-07T09:40:58.361Z,15.02
2022-11-07T09:44:07.546Z,15.06
2022-11-07T09:46:59.094Z,14.55
2022-11-07T09:49:47.403Z,15.86
2022-11-07T09:52:40.754Z,16.32
2022-11-07T09:55:28.153Z,16.10
2022-11-07T09:58:20.154Z,16.15
2022-11-07T10:01:07.710Z,15.47
2022-11-07T10:04:23.656Z,16.42
2022-11-07T10:07:01.231Z,16.45
2022-11-07T10:09:56.923Z,16.31
2022-11-07T10:13:02.794Z,16.12
2022-11-07T10:15:56.866Z,16.13
2022-11-07T10:18:55.220Z,15.82
2022-11-07T10:21:46.847Z,15.42
2022-11-07T10:24:48.361Z,16.00
2022-11-07T10:27:40.851Z,16.20
2022-11-07T10:30:24.665Z,15.63
2022-11-07T10:33:18.321Z,15.98
2022-11-07T10:36:06.938Z,16.13
2022-11-07T10:38:51.107Z,16.06
2022-11-07T10:41:37.286Z,16.08
2022-11-07T10:44:25.485Z,16.19
2022-11-07T10:47:17.262Z,16.22
2022-11-07T10:50:02.625Z,16.16
2022-11-07T10:52:54.233Z,16.30
2022-11-07T10:55:45.428Z,15.91
2022-11-07T10:58:35.537Z,16.09
2022-11-07T11:01:26.572Z,15.97
2022-11-07T11:04:21.319Z,15.94
2022-11-07T11:07:07.589Z,16.26
2022-11-07T11:09:52.985Z,16.52
2022-11-07T11:12:37.635Z,16.03
2022-11-07T11:15:24.144Z,16.34
2022-11-07T11:18:18.764Z,16.17
2022-11-07T11:21:06.167Z,16.19
2022-11-07T11:23:50.654Z,16.33
2022-11-07T11:26:37.829Z,16.76
2022-11-07T11:29:35.386Z,16.98
2022-11-07T11:32:28.640Z,17.00
2022-11-07T11:35:40.355Z,16.58
2022-11-07T11:38:29.602Z,16.48
2022-11-07T11:41:21.144Z,16.37
2022-11-07T11:44:13.998Z,16.86
2022-11-07T11:47:05.522Z,16.84
2022-11-07T11:49:53.876Z,16.49
2022-11-07T11:52:39.397Z,16.65
2022-11-07T11:55:29.519Z,16.68
2022-11-07T11:58:24.927Z,16.55
2022-11-07T12:01:20.985Z,16.34
2022-11-07T12:04:35.699Z,16.51
2022-11-07T12:07:47.760Z,16.29
2022-11-07T12:10:36.628Z,16.42
2022-11-07T12:13:33.674Z,16.21
2022-11-07T12:16:27.005Z,16.48
2022-11-07T12:19:22.102Z,16.52
2022-11-07T12:22:11.346Z,16.29
2022-11-07T12:25:03.157Z,16.48
2022-11-07T12:27:54.613Z,16.57
2022-11-07T12:30:52.872Z,16.38
2022-11-07T12:33:45.201Z,16.56
2022-11-07T12:36:44.458Z,16.49
2022-11-07T12:39:44.109Z,16.28
2022-11-07T12:42:41.672Z,15.82
2022-11-07T12:45:38.159Z,16.21
2022-11-07T12:49:03.604Z,16.32
2022-11-07T12:51:55.728Z,16.88
2022-11-07T12:54:48.222Z,16.49
2022-11-07T12:57:35.552Z,16.40
2022-11-07T13:00:28.831Z,16.44
2022-11-07T13:03:38.562Z,16.46
2022-11-07T13:06:31.980Z,16.80
2022-11-07T13:09:25.011Z,17.06
2022-11-07T13:12:19.042Z,16.74
2022-11-07T13:15:05.664Z,16.85
2022-11-07T13:17:49.784Z,16.70
2022-11-07T13:20:34.086Z,16.65
2022-11-07T13:23:18.888Z,16.20
2022-11-07T13:26:25.873Z,16.44
2022-11-07T13:29:25.081Z,16.60
2022-11-07T13:32:13.040Z,16.47
2022-11-07T13:34:59.400Z,16.48
2022-11-07T13:37:48.233Z,16.28
2022-11-07T13:40:35.521Z,16.23
2022-11-07T13:43:22.690Z,16.21
2022-11-07T13:46:09.963Z,16.19
2022-11-07T13:48:58.239Z,16.30
2022-11-07T13:51:45.571Z,16.38
2022-11-07T13:54:35.966Z,15.95
2022-11-07T13:57:23.454Z,16.13
2022-11-07T14:00:14.926Z,15.85
2022-11-07T14:03:00.755Z,15.69
2022-11-07T14:05:49.507Z,15.82
2022-11-07T14:08:37.576Z,15.65
2022-11-07T14:11:24.020Z,15.66
2022-11-07T14:14:09.014Z,15.66
2022-11-07T14:16:59.094Z,16.05
2022-11-07T14:19:44.450Z,15.71
2022-11-07T14:22:29.637Z,15.69
2022-11-07T14:25:23.416Z,15.51
2022-11-07T14:28:08.637Z,15.65
2022-11-07T14:30:53.875Z,15.45
2022-11-07T14:33:37.778Z,15.51
2022-11-07T14:36:23.300Z,15.24
2022-11-07T14:39:15.276Z,15.08
2022-11-07T14:42:02.504Z,14.87
2022-11-07T14:44:54.358Z,14.92
2022-11-07T14:47:39.466Z,14.96
2022-11-07T14:50:28.785Z,15.00
2022-11-07T14:53:19.331Z,14.75
2022-11-07T14:56:09.286Z,14.52
2022-11-07T14:58:53.263Z,14.61
2022-11-07T15:01:37.249Z,14.62
2022-11-07T15:04:29.559Z,14.51
2022-11-07T15:07:19.948Z,14.46
2022-11-07T15:10:16.584Z,14.40
2022-11-07T15:13:06.881Z,14.34
2022-11-07T15:16:02.095Z,14.09
2022-11-07T15:18:49.287Z,13.86
2022-11-07T15:21:36.121Z,13.71
2022-11-07T15:24:41.373Z,13.72
2022-11-07T15:27:32.607Z,13.73
2022-11-07T15:30:30.121Z,13.51
2022-11-07T15:33:15.536Z,13.45
2022-11-07T15:36:02.279Z,13.32
2022-11-07T15:38:46.433Z,13.32
2022-11-07T15:41:30.551Z,12.91
2022-11-07T15:44:14.693Z,13.15
2022-11-07T15:47:00.445Z,13.20
2022-11-07T15:49:44.508Z,12.86
2022-11-07T15:52:28.827Z,12.98
2022-11-07T15:55:18.171Z,12.99
2022-11-07T15:58:02.165Z,12.73
2022-11-07T16:00:46.217Z,12.87
2022-11-07T16:03:31.647Z,12.96
2022-11-07T16:06:21.127Z,12.85
2022-11-07T16:09:06.218Z,12.74
2022-11-07T16:11:50.548Z,12.34
2022-11-07T16:14:43.894Z,12.69
2022-11-07T16:17:29.203Z,12.19
2022-11-07T16:20:18.415Z,12.16
2022-11-07T16:23:03.328Z,12.43
2022-11-07T16:25:51.473Z,12.20
2022-11-07T16:28:38.905Z,11.80
2022-11-07T16:31:23.281Z,11.92
2022-11-07T16:34:07.892Z,12.06
2022-11-07T16:36:53.487Z,11.89
2022-11-07T16:39:37.499Z,11.67
2022-11-07T16:42:21.692Z,11.42
2022-11-07T16:45:06.400Z,11.66
2022-11-07T16:47:50.432Z,11.50
2022-11-07T16:50:34.547Z,11.73
2022-11-07T16:53:20.711Z,11.50
2022-11-07T16:56:05.166Z,11.44
2022-11-07T16:58:49.679Z,11.09
2022-11-07T17:01:33.766Z,11.24
2022-11-07T17:04:17.859Z,11.44
2022-11-07T17:07:01.992Z,11.07
2022-11-07T17:09:47.480Z,11.14
2022-11-07T17:12:31.339Z,11.32
2022-11-07T17:15:15.230Z,11.90
2022-11-07T17:18:02.298Z,11.83
2022-11-07T17:20:51.245Z,12.22
2022-11-07T17:23:36.821Z,12.26
2022-11-07T17:26:23.206Z,12.26
2022-11-07T17:29:08.476Z,12.01
2022-11-07T17:31:52.351Z,12.00
2022-11-07T17:34:36.253Z,12.27
2022-11-07T17:37:21.136Z,12.05
2022-11-07T17:40:06.742Z,12.21
2022-11-07T17:42:51.874Z,12.19
2022-11-07T17:45:35.670Z,11.99
2022-11-07T17:48:19.756Z,12.02
2022-11-07T17:51:03.621Z,12.14
2022-11-07T17:53:47.532Z,12.10
2022-11-07T17:56:32.383Z,12.05
2022-11-07T17:59:19.378Z,11.92
2022-11-07T18:02:03.347Z,11.90
2022-11-07T18:04:48.078Z,11.95
2022-11-07T18:07:33.137Z,12.00
2022-11-07T18:10:17.396Z,12.02
2022-11-07T18:13:01.186Z,11.89
2022-11-07T18:15:46.461Z,11.53
2022-11-07T18:18:30.313Z,11.57
2022-11-07T18:21:14.884Z,11.54
2022-11-07T18:23:59.578Z,11.60
2022-11-07T18:26:43.826Z,11.61
2022-11-07T18:29:27.609Z,11.36
2022-11-07T18:32:12.787Z,11.32
2022-11-07T18:34:56.698Z,11.53
2022-11-07T18:37:40.674Z,11.29
2022-11-07T18:40:24.526Z,11.35
2022-11-07T18:43:11.818Z,11.53
2022-11-07T18:45:56.948Z,11.16
2022-11-07T18:48:43.239Z,11.04
2022-11-07T18:51:27.218Z,11.14
2022-11-07T18:54:13.061Z,11.09
2022-11-07T18:56:56.829Z,11.13
2022-11-07T18:59:40.550Z,11.01
2022-11-07T19:02:24.345Z,11.04
2022-11-07T19:05:09.869Z,11.15
2022-11-07T19:07:53.600Z,10.81
2022-11-07T19:10:37.296Z,10.51
2022-11-07T19:13:21.131Z,10.18
2022-11-07T19:16:06.596Z,9.94
2022-11-07T19:18:51.286Z,10.18
2022-11-07T19:21:38.201Z,9.79
2022-11-07T19:24:25.312Z,9.89
2022-11-07T19:27:09.479Z,9.94
2022-11-07T19:29:53.422Z,9.79
2022-11-07T19:32:37.276Z,9.30
2022-11-07T19:35:21.084Z,9.35
2022-11-07T19:38:09.088Z,9.66
2022-11-07T19:40:53.148Z,9.42
2022-11-07T19:43:37.065Z,9.08
2022-11-07T19:46:22.754Z,9.47
2022-11-07T19:49:06.488Z,9.52
2022-11-07T19:51:52.284Z,9.48
2022-11-07T19:54:37.703Z,9.47
2022-11-07T19:57:21.522Z,9.46
2022-11-07T20:00:06.387Z,9.43
2022-11-07T20:02:50.165Z,9.40
2022-11-07T20:05:34.483Z,9.52
2022-11-07T20:08:18.282Z,9.11
2022-11-07T20:11:03.433Z,9.41
2022-11-07T20:13:48.123Z,9.21
2022-11-07T20:16:32.309Z,8.97
2022-11-07T20:19:16.035Z,8.93
2022-11-07T20:21:59.800Z,9.05
2022-11-07T20:24:43.588Z,8.78
2022-11-07T20:27:28.905Z,8.82
2022-11-07T20:30:13.796Z,8.69
2022-11-07T20:32:57.833Z,8.30
2022-11-07T20:35:41.839Z,8.39
2022-11-07T20:38:25.693Z,8.80
2022-11-07T20:41:10.025Z,8.66
2022-11-07T20:43:55.984Z,8.39
2022-11-07T20:46:41.767Z,8.49
2022-11-07T20:49:25.466Z,8.37
2022-11-07T20:52:09.367Z,8.64
2022-11-07T20:54:53.577Z,8.74
2022-11-07T20:57:37.403Z,8.71
2022-11-07T21:00:23.330Z,8.69
2022-11-07T21:03:07.230Z,8.75
2022-11-07T21:05:51.815Z,8.71
2022-11-07T21:08:37.380Z,8.70
2022-11-07T21:11:21.230Z,8.71
2022-11-07T21:14:05.384Z,8.83
2022-11-07T21:16:50.645Z,9.16
2022-11-07T21:19:34.487Z,9.25
2022-11-07T21:22:18.474Z,9.04
2022-11-07T21:25:03.788Z,9.16
2022-11-07T21:27:47.593Z,9.18
2022-11-07T21:30:32.018Z,9.34
2022-11-07T21:33:17.447Z,9.48
2022-11-07T21:36:01.721Z,9.52
2022-11-07T21:38:46.860Z,9.69
2022-11-07T21:41:32.642Z,9.51
2022-11-07T21:44:16.756Z,9.31
2022-11-07T21:47:00.784Z,9.27
2022-11-07T21:49:46.354Z,9.58
2022-11-07T21:52:30.241Z,9.75
2022-11-07T21:55:14.231Z,9.86
2022-11-07T21:57:58.294Z,9.71
2022-11-07T22:00:42.287Z,9.79
2022-11-07T22:03:51.111Z,9.57
2022-11-07T22:06:33.743Z,9.80
2022-11-07T22:09:19.585Z,9.86
2022-11-07T22:12:03.347Z,9.29
2022-11-07T22:14:49.161Z,9.40
2022-11-07T22:17:32.900Z,9.36
2022-11-07T22:20:16.995Z,9.36
2022-11-07T22:23:02.136Z,9.26
2022-11-07T22:25:45.865Z,9.24
2022-11-07T22:28:29.662Z,8.95
2022-11-07T22:31:15.125Z,9.15
2022-11-07T22:34:00.891Z,9.18
2022-11-07T22:36:44.662Z,8.94
2022-11-07T22:39:29.816Z,8.98
2022-11-07T22:42:13.537Z,8.89
2022-11-07T22:44:57.232Z,8.85
2022-11-07T22:47:41.022Z,8.70
2022-11-07T22:50:24.775Z,9.02
2022-11-07T22:53:08.628Z,9.10
2022-11-07T22:55:53.746Z,9.25
2022-11-07T22:58:37.828Z,9.21
2022-11-07T23:01:23.622Z,9.34
2022-11-07T23:04:08.278Z,9.49
2022-11-07T23:06:52.013Z,9.20
2022-11-07T23:09:35.760Z,9.19
2022-11-07T23:12:20.888Z,9.22
2022-11-07T23:15:05.255Z,8.96
2022-11-07T23:17:48.974Z,9.17
2022-11-07T23:20:49.534Z,9.08
2022-11-07T23:23:33.248Z,9.12
2022-11-07T23:26:19.349Z,9.16
2022-11-07T23:29:10.830Z,8.92
2022-11-07T23:31:55.345Z,8.94
2022-11-07T23:34:39.947Z,8.97
2022-11-07T23:37:23.674Z,9.23
2022-11-07T23:40:08.767Z,9.21
2022-11-07T23:42:52.544Z,9.31
2022-11-07T23:45:54.945Z,9.09
2022-11-07T23:48:56.279Z,8.74
2022-11-07T23:51:40.805Z,8.92
2022-11-07T23:54:38.330Z,8.99
2022-11-07T23:57:22.307Z,9.10
